M I D A S
Marine Information and Data Acquisition System
Tripno 1700 of the Zeeleeuw from 2009-05-27 07:00:46 to 2009-05-27 12:25:24
Back to CruiseResearch ActivitiesStationsMapUnderway DataData graphs

EquipmentUnitsComment
TimeDGPSUTC
LatitudeDGPSDM.mWGS84
LongitudeDGPSDM.mWGS84
HeadingGyrodeg 
SOGDGPSknotsSpeed over ground
COGDGPSdegCourse over ground
DepthEcho soundermeters200 kHz
Missing or incorrect values are displayed as -999
Navigation data collected by the RV Zeeleeuw from 2009-05-27 07:04:53 to 2009-05-27 17:11:54
Time Latitude Longitude Heading SOG COG Depth
2009-05-27 07:06:02 51°13.678 2°55.904 110.9 2.8 293 -999
2009-05-27 07:07:02 51°13.692 2°55.836 103.3 2.7 286 -999
2009-05-27 07:08:01 51°13.701 2°55.772 91.5 2.1 281 10.8
2009-05-27 07:08:59 51°13.708 2°55.759 56.4 0.4 314 12.4
2009-05-27 07:09:58 51°13.702 2°55.742 35.2 0.8 239 4.5
2009-05-27 07:10:58 51°13.746 2°55.716 329.6 5.5 328 10.1
2009-05-27 07:11:58 51°13.85 2°55.621 333.9 8 334 9.5
2009-05-27 07:12:58 51°13.977 2°55.526 336.9 8.7 336 9.8
2009-05-27 07:13:58 51°14.109 2°55.429 337.3 9 335 9.4
2009-05-27 07:14:58 51°14.237 2°55.31 321.5 8.9 319 9.4
2009-05-27 07:15:58 51°14.335 2°55.124 305 9.5 306 9.7
2009-05-27 07:16:58 51°14.432 2°54.922 310 9.7 311 9.5
2009-05-27 07:17:58 51°14.567 2°54.752 336.5 11 329 9.2
2009-05-27 07:18:58 51°14.737 2°54.615 340.5 11.8 331 8.8
2009-05-27 07:19:58 51°14.907 2°54.466 339.9 11.5 335 8.4
2009-05-27 07:20:58 51°15.081 2°54.34 341.2 11.5 337 9.6
2009-05-27 07:21:58 51°15.253 2°54.212 338.4 11.3 333 9.5
2009-05-27 07:22:58 51°15.417 2°54.063 333.6 11.5 329 8.8
2009-05-27 07:23:58 51°15.583 2°53.912 334.4 11.5 330 9.4
2009-05-27 07:24:58 51°15.748 2°53.756 333.7 11.6 328 9.7
2009-05-27 07:25:58 51°15.911 2°53.594 334 11.5 328 10
2009-05-27 07:26:58 51°16.074 2°53.433 333.6 11.7 328 10.4
2009-05-27 07:27:58 51°16.24 2°53.27 334.7 11.8 328 10.8
2009-05-27 07:28:58 51°16.406 2°53.11 337.1 11.6 333 11.1
2009-05-27 07:29:58 51°16.576 2°52.973 340 11.6 335 10.5
2009-05-27 07:30:58 51°16.75 2°52.84 340 11.5 334 9.3
2009-05-27 07:31:58 51°16.922 2°52.712 339.9 11.3 334 8.6
2009-05-27 07:32:58 51°17.093 2°52.583 339.9 11.3 335 8.3
2009-05-27 07:33:58 51°17.266 2°52.454 340.3 11.5 335 8.9
2009-05-27 07:34:58 51°17.432 2°52.305 331.1 11.3 327 9.2
2009-05-27 07:35:58 51°17.586 2°52.13 329.2 11.5 326 9.9
2009-05-27 07:36:58 51°17.741 2°51.957 329.7 11.4 325 9.1
2009-05-27 07:37:58 51°17.897 2°51.784 330.5 11.5 327 9
2009-05-27 07:38:58 51°18.053 2°51.609 330.3 11.5 324 9.6
2009-05-27 07:39:58 51°18.211 2°51.433 329.2 11.7 325 10.8
2009-05-27 07:40:58 51°18.369 2°51.253 330.1 11.6 323 11.7
2009-05-27 07:41:58 51°18.526 2°51.073 330.5 11.6 323 12.6
2009-05-27 07:42:58 51°18.683 2°50.892 330.1 11.6 323 13.2
2009-05-27 07:43:58 51°18.84 2°50.708 328.9 11.7 324 13.1
2009-05-27 07:44:58 51°18.998 2°50.527 331.1 11.6 324 12.7
2009-05-27 07:45:58 51°19.154 2°50.348 330.7 11.7 324 11.8
2009-05-27 07:46:58 51°19.311 2°50.166 329.6 11.4 325 9.9
2009-05-27 07:47:58 51°19.468 2°49.981 330.8 11.9 325 11.7
2009-05-27 07:48:58 51°19.628 2°49.8 330.8 11.8 324 12.8
2009-05-27 07:49:58 51°19.786 2°49.618 329.7 11.8 324 14.9
2009-05-27 07:50:58 51°19.944 2°49.437 330.9 11.5 324 17.1
2009-05-27 07:51:58 51°20.098 2°49.257 330.2 11.4 322 19.7
2009-05-27 07:52:58 51°20.252 2°49.074 330.5 11.7 323 21.1
2009-05-27 07:53:58 51°20.408 2°48.888 330.9 11.8 323 21.2
2009-05-27 07:54:58 51°20.564 2°48.698 328.6 11.8 322 21
2009-05-27 07:55:58 51°20.719 2°48.507 330.6 11.7 322 19.9
2009-05-27 07:56:58 51°20.874 2°48.326 330.4 11.7 323 18.1
2009-05-27 07:57:58 51°21.03 2°48.142 331.1 11.5 324 18.6
2009-05-27 07:58:58 51°21.187 2°47.957 330.2 11.9 323 19.1
2009-05-27 07:59:58 51°21.342 2°47.759 324.5 11.9 318 21.1
2009-05-27 08:00:58 51°21.489 2°47.541 320.2 12.1 314 21.7
2009-05-27 08:01:58 51°21.64 2°47.337 334.5 11.7 328 22.5
2009-05-27 08:02:58 51°21.812 2°47.19 340.4 11.7 335 22.5
2009-05-27 08:03:58 51°21.984 2°47.045 339.6 11.8 331 22.5
2009-05-27 08:04:58 51°22.158 2°46.909 341.7 11.7 334 20.5
2009-05-27 08:05:58 51°22.332 2°46.774 341.4 11.4 333 15.9
2009-05-27 08:06:58 51°22.502 2°46.634 336.9 11.6 325 18.5
2009-05-27 08:07:58 51°22.662 2°46.463 332.1 11.7 327 21
2009-05-27 08:08:58 51°22.822 2°46.292 332.6 11.3 328 22.3
2009-05-27 08:09:58 51°22.98 2°46.123 334 11.6 326 21.7
2009-05-27 08:10:58 51°23.14 2°45.951 333.9 11.7 324 24.4
2009-05-27 08:11:58 51°23.299 2°45.788 332.1 11.2 327 25.6
2009-05-27 08:12:58 51°23.458 2°45.621 333.2 11.4 327 25.4
2009-05-27 08:13:58 51°23.616 2°45.45 333.7 11.3 328 25.2
2009-05-27 08:14:58 51°23.774 2°45.277 332.4 11.4 327 25.1
2009-05-27 08:15:58 51°23.932 2°45.108 333.6 11.3 326 25.6
2009-05-27 08:16:58 51°24.091 2°44.952 345.2 10.8 342 24.1
2009-05-27 08:17:58 51°24.241 2°45.046 47.8 10.3 43 25.4
2009-05-27 08:18:58 51°24.337 2°45.279 62.4 10.5 65 24.3
2009-05-27 08:19:58 51°24.429 2°45.522 57.4 10.7 58 24.8
2009-05-27 08:20:58 51°24.53 2°45.749 56 10.3 57 24.5
2009-05-27 08:21:58 51°24.635 2°45.967 54.7 10.2 51 24.1
2009-05-27 08:22:58 51°24.734 2°46.192 57.3 10.4 52 23.7
2009-05-27 08:23:58 51°24.836 2°46.415 55.7 10.5 52 23.8
2009-05-27 08:24:58 51°24.937 2°46.644 57.6 10.5 54 23.2
2009-05-27 08:25:58 51°25.036 2°46.873 55.6 10.5 57 23.8
2009-05-27 08:26:58 51°25.133 2°47.106 57.4 10.7 58 23.8
2009-05-27 08:27:58 51°25.228 2°47.34 57.5 10.4 53 23.2
2009-05-27 08:28:58 51°25.319 2°47.579 60.1 10 57 25.3
2009-05-27 08:29:58 51°25.409 2°47.819 59.8 10.3 58 25.2
2009-05-27 08:30:58 51°25.502 2°48.053 56.7 10.6 61 24.2
2009-05-27 08:31:58 51°25.591 2°48.289 58 10.3 56 22.8
2009-05-27 08:32:58 51°25.68 2°48.524 57.2 10.4 61 22.7
2009-05-27 08:33:58 51°25.767 2°48.758 60.7 10.3 62 22.8
2009-05-27 08:34:58 51°25.858 2°48.991 58.3 10.6 60 22.9
2009-05-27 08:35:58 51°25.946 2°49.226 60.3 10.6 58 22.5
2009-05-27 08:36:58 51°26.037 2°49.463 61 10.1 64 22
2009-05-27 08:37:58 51°26.127 2°49.699 59.8 10.5 54 22.3
2009-05-27 08:38:58 51°26.217 2°49.934 60 10.5 60 22.2
2009-05-27 08:39:58 51°26.31 2°50.171 59.5 10.4 51 22.3
2009-05-27 08:40:58 51°26.399 2°50.404 59 10.5 65 22.4
2009-05-27 08:41:58 51°26.493 2°50.633 58.8 10.3 58 22.9
2009-05-27 08:42:58 51°26.583 2°50.865 60.2 10.5 53 21.9
2009-05-27 08:43:58 51°26.673 2°51.105 61.5 10.9 59 21
2009-05-27 08:44:58 51°26.757 2°51.35 61.4 10.3 60 22.9
2009-05-27 08:45:58 51°26.842 2°51.589 59.7 10.1 56 23.2
2009-05-27 08:46:58 51°26.928 2°51.831 61.9 10.5 52 24
2009-05-27 08:47:58 51°27.011 2°52.074 63 10.3 69 23.2
2009-05-27 08:48:58 51°27.092 2°52.317 60 10.4 58 17.7
2009-05-27 08:49:58 51°27.17 2°52.56 61.5 10.5 62 21.9
2009-05-27 08:50:58 51°27.249 2°52.806 62.2 10.2 63 19.9
2009-05-27 08:51:58 51°27.327 2°53.049 61.9 10.1 62 22.5
2009-05-27 08:52:58 51°27.406 2°53.293 63.1 10.3 64 23.9
2009-05-27 08:53:58 51°27.483 2°53.537 62.3 10.1 69 23.9
2009-05-27 08:54:58 51°27.562 2°53.775 60.3 10 56 22.6
2009-05-27 08:55:58 51°27.643 2°54.016 58.2 10.2 59 23.1
2009-05-27 08:56:58 51°27.72 2°54.256 62.5 10 57 23.7
2009-05-27 08:57:58 51°27.798 2°54.497 58 10.2 62 23.8
2009-05-27 08:58:58 51°27.874 2°54.738 62.9 10 65 25.5
2009-05-27 08:59:58 51°27.953 2°54.976 61.7 10 63 25.8
2009-05-27 09:00:58 51°28.029 2°55.216 63.6 10.1 52 24.8
2009-05-27 09:01:58 51°28.11 2°55.448 58.8 9.5 59 25.5
2009-05-27 09:02:58 51°28.189 2°55.684 58.8 10 60 25.6
2009-05-27 09:03:58 51°28.271 2°55.92 57.4 10.1 66 26.5
2009-05-27 09:04:58 51°28.351 2°56.151 61.1 9.7 63 25.2
2009-05-27 09:05:58 51°28.433 2°56.385 61.1 10.4 56 26.2
2009-05-27 09:06:58 51°28.513 2°56.624 58.3 10.2 66 25
2009-05-27 09:07:58 51°28.591 2°56.861 62.3 9.9 61 25.8
2009-05-27 09:08:58 51°28.675 2°57.1 60 10.2 58 26.1
2009-05-27 09:09:58 51°28.757 2°57.34 61.7 10.2 55 27.1
2009-05-27 09:10:58 51°28.84 2°57.582 60.7 10.7 57 26.9
2009-05-27 09:11:58 51°28.926 2°57.823 58.2 10.2 59 26.4
2009-05-27 09:12:59 51°29.009 2°58.07 63.9 10.3 67 26.8
2009-05-27 09:13:58 51°29.092 2°58.302 59.3 10.1 60 26.4
2009-05-27 09:14:58 51°29.175 2°58.545 57.6 10.3 58 26.7
2009-05-27 09:15:58 51°29.259 2°58.782 60.3 10.4 60 26.6
2009-05-27 09:16:58 51°29.343 2°59.023 61.1 10.1 57 27.1
2009-05-27 09:17:58 51°29.423 2°59.266 60.6 10.4 64 27.7
2009-05-27 09:18:58 51°29.503 2°59.507 60.2 10.5 62 27.5
2009-05-27 09:19:58 51°29.584 2°59.747 59.6 10.5 62 27.6
2009-05-27 09:20:58 51°29.68 2°59.97 54.6 10.2 52 27.6
2009-05-27 09:21:58 51°29.778 3°0.19 53.1 10.1 61 26.8
2009-05-27 09:22:58 51°29.872 3°0.413 54.4 10.1 56 27.2
2009-05-27 09:23:58 51°29.97 3°0.63 53.8 10.1 52 25.9
2009-05-27 09:24:58 51°30.068 3°0.849 57.4 9.9 50 27.1
2009-05-27 09:25:58 51°30.164 3°1.072 56.6 10.3 52 27.4
2009-05-27 09:26:58 51°30.256 3°1.299 55.8 10.1 55 27.6
2009-05-27 09:27:58 51°30.347 3°1.532 56.9 10.5 60 27.3
2009-05-27 09:28:58 51°30.438 3°1.766 58.2 10.6 49 27.3
2009-05-27 09:29:58 51°30.531 3°2 60.2 10.7 57 27.4
2009-05-27 09:30:58 51°30.626 3°2.231 57.3 10.5 52 27.1
2009-05-27 09:31:58 51°30.72 3°2.468 56.7 10.3 54 27.3
2009-05-27 09:32:58 51°30.816 3°2.701 56.7 10.7 51 27.3
2009-05-27 09:33:58 51°30.915 3°2.925 55.4 10.4 51 27.5
2009-05-27 09:34:58 51°31.006 3°3.159 60.2 10.3 52 27.7
2009-05-27 09:35:58 51°31.101 3°3.394 58.3 10.4 53 27.8
2009-05-27 09:36:58 51°31.192 3°3.633 59.6 10.4 54 28.1
2009-05-27 09:37:58 51°31.287 3°3.872 57.8 11.2 58 27.8
2009-05-27 09:38:58 51°31.38 3°4.107 57 10.5 62 27.5
2009-05-27 09:39:58 51°31.474 3°4.331 56.7 10.1 53 27.4
2009-05-27 09:40:59 51°31.568 3°4.564 58.3 10.5 60 28.1
2009-05-27 09:41:58 51°31.661 3°4.792 58.8 10.3 54 27.7
2009-05-27 09:42:58 51°31.753 3°5.03 57.4 10.7 53 28
2009-05-27 09:43:58 51°31.844 3°5.267 59.1 10.5 57 27.6
2009-05-27 09:44:58 51°31.959 3°5.466 34.1 10.1 19 27.8
2009-05-27 09:45:58 51°32.12 3°5.443 341.9 10.7 330 27.8
2009-05-27 09:46:58 51°32.251 3°5.234 315.9 11.3 306 27.2
2009-05-27 09:47:58 51°32.368 3°4.992 315.9 11.6 309 28.1
2009-05-27 09:48:58 51°32.485 3°4.748 314.7 11.6 306 27.9
2009-05-27 09:49:58 51°32.605 3°4.503 314.4 11.8 306 30.8
2009-05-27 09:50:58 51°32.727 3°4.255 314.4 11.8 308 31.1
2009-05-27 09:51:58 51°32.845 3°4.017 314.9 11.3 309 28.6
2009-05-27 09:52:58 51°32.961 3°3.776 314.5 11.4 308 22.8
2009-05-27 09:53:58 51°33.076 3°3.541 315 10.8 304 20.7
2009-05-27 09:54:58 51°33.154 3°3.279 291.1 11.3 281 19.7
2009-05-27 09:55:58 51°33.119 3°2.987 249.6 11.7 246 21.1
2009-05-27 09:56:58 51°33.006 3°2.716 237.5 12 232 21.3
2009-05-27 09:57:58 51°32.884 3°2.466 236.8 12.3 233 21.8
2009-05-27 09:58:58 51°32.761 3°2.198 240.5 12.4 238 21.2
2009-05-27 09:59:58 51°32.658 3°1.914 247.2 12.3 244 21.3
2009-05-27 10:00:58 51°32.562 3°1.619 246.9 12.6 243 23.5
2009-05-27 10:01:58 51°32.465 3°1.33 246.9 12.4 243 23.3
2009-05-27 10:02:58 51°32.367 3°1.041 246 12.4 243 22.4
2009-05-27 10:03:58 51°32.268 3°0.75 246.1 12.6 241 25.3
2009-05-27 10:04:58 51°32.168 3°0.459 246.9 12.4 240 26.1
2009-05-27 10:05:58 51°32.069 3°0.167 246.9 12.3 241 25.9
2009-05-27 10:06:58 51°31.975 2°59.871 249.6 12.5 244 26.2
2009-05-27 10:07:58 51°31.888 2°59.573 250.5 12.4 246 28.3
2009-05-27 10:08:58 51°31.803 2°59.278 249.9 12.4 245 28.4
2009-05-27 10:09:58 51°31.713 2°58.975 248.9 12.7 243 28.7
2009-05-27 10:10:58 51°31.622 2°58.68 249.5 12.6 244 29.5
2009-05-27 10:11:58 51°31.531 2°58.373 250.1 12.7 245 30.3
2009-05-27 10:12:58 51°31.44 2°58.079 245.7 12.2 240 30
2009-05-27 10:13:58 51°31.333 2°57.798 242.2 12.6 238 30
2009-05-27 10:14:58 51°31.221 2°57.51 242.8 12.1 237 30.5
2009-05-27 10:15:58 51°31.117 2°57.227 244.1 12.4 241 30.9
2009-05-27 10:16:58 51°31.016 2°56.931 244.1 12.6 240 31.1
2009-05-27 10:17:58 51°30.916 2°56.633 245.6 12.6 242 32.6
2009-05-27 10:18:58 51°30.816 2°56.336 245.9 12.5 244 31.9
2009-05-27 10:19:58 51°30.72 2°56.044 245.5 12.4 244 34.3
2009-05-27 10:20:58 51°30.625 2°55.752 245.2 12.2 243 34.8
2009-05-27 10:21:58 51°30.531 2°55.461 245.3 12.3 243 36.9
2009-05-27 10:22:58 51°30.44 2°55.178 245.1 12.1 241 35.7
2009-05-27 10:23:58 51°30.345 2°54.887 243.5 12.5 242 34.3
2009-05-27 10:24:58 51°30.25 2°54.611 242.9 11.6 240 33.2
2009-05-27 10:25:58 51°30.156 2°54.333 243.9 12.3 242 32.8
2009-05-27 10:26:58 51°30.058 2°54.045 244.4 12.6 242 31
2009-05-27 10:27:58 51°29.958 2°53.757 242.9 12.2 240 32.5
2009-05-27 10:28:59 51°29.859 2°53.47 243.1 11.9 241 32.4
2009-05-27 10:29:58 51°29.764 2°53.185 243.5 12.6 241 31.7
2009-05-27 10:30:58 51°29.669 2°52.898 243.6 12.4 241 31.5
2009-05-27 10:31:58 51°29.573 2°52.61 243.2 12.3 240 30.6
2009-05-27 10:32:58 51°29.479 2°52.327 243.9 12.3 243 29.5
2009-05-27 10:33:58 51°29.384 2°52.035 243.3 12.3 243 29.6
2009-05-27 10:34:58 51°29.287 2°51.75 243.8 12.2 242 30
2009-05-27 10:35:59 51°29.19 2°51.462 242.6 12.3 241 27.6
2009-05-27 10:36:59 51°29.094 2°51.178 242.8 11.7 241 30.1
2009-05-27 10:37:58 51°29.002 2°50.897 243.9 12 243 27.6
2009-05-27 10:38:58 51°28.903 2°50.611 242.5 12.3 241 27.1
2009-05-27 10:39:59 51°28.802 2°50.312 243.2 12.6 242 25.8
2009-05-27 10:40:58 51°28.707 2°50.026 243.5 12.4 241 26.7
2009-05-27 10:41:58 51°28.613 2°49.73 244.1 12.7 242 30.1
2009-05-27 10:42:58 51°28.52 2°49.444 243.6 12.4 242 29.7
2009-05-27 10:43:58 51°28.424 2°49.154 243.7 12.3 242 30.8
2009-05-27 10:44:59 51°28.326 2°48.86 242.3 11.5 238 -999
2009-05-27 10:45:59 51°28.235 2°48.582 242.9 12.4 242 25.6
2009-05-27 10:46:58 51°28.144 2°48.305 244 12.4 243 30.2
2009-05-27 10:47:58 51°28.047 2°48.007 243.9 12.7 243 30.4
2009-05-27 10:48:58 51°27.95 2°47.716 243.2 12.3 243 29.5
2009-05-27 10:49:58 51°27.851 2°47.428 243.2 12.5 242 29.8
2009-05-27 10:50:58 51°27.753 2°47.135 243.9 12.4 243 32.8
2009-05-27 10:51:58 51°27.657 2°46.844 242.6 12.5 243 32.1
2009-05-27 10:52:59 51°27.562 2°46.556 244.2 11.8 240 30.6
2009-05-27 10:53:58 51°27.47 2°46.278 242.7 12.2 241 29.9
2009-05-27 10:54:58 51°27.376 2°45.989 243.2 11.9 242 28.9
2009-05-27 10:55:58 51°27.283 2°45.702 243.3 12.3 244 28.7
2009-05-27 10:56:58 51°27.187 2°45.403 243.4 12.7 242 28.5
2009-05-27 10:57:58 51°27.092 2°45.107 243.7 12.2 242 27.3
2009-05-27 10:58:58 51°26.996 2°44.813 243.1 12.5 242 28.6
2009-05-27 10:59:58 51°26.92 2°44.585 243.2 9.1 242 25.9
2009-05-27 11:00:58 51°26.839 2°44.334 243.4 11 243 26.2
2009-05-27 11:01:58 51°26.771 2°44.129 242.9 8.3 243 27.1
2009-05-27 11:03:00 51°26.694 2°43.888 244.1 10.6 243 24.3
2009-05-27 11:03:58 51°26.604 2°43.616 243.8 12 242 25.7
2009-05-27 11:04:58 51°26.51 2°43.335 243.2 12.5 243 23.7
2009-05-27 11:05:58 51°26.415 2°43.042 243.6 12.3 243 24.2
2009-05-27 11:06:58 51°26.321 2°42.752 243.3 12.2 244 27.8
2009-05-27 11:07:58 51°26.226 2°42.468 243.6 12.2 242 23.6
2009-05-27 11:08:58 51°26.125 2°42.191 237.4 12 234 25.7
2009-05-27 11:09:58 51°25.977 2°41.983 206.8 11.9 207 28.3
2009-05-27 11:10:58 51°25.793 2°41.884 189.5 11.7 193 30
2009-05-27 11:11:59 51°25.598 2°41.87 176.2 11.7 181 25.6
2009-05-27 11:12:58 51°25.404 2°41.889 168.3 11.8 177 23.5
2009-05-27 11:13:58 51°25.21 2°41.951 157.4 11.9 161 23.9
2009-05-27 11:14:58 51°25.039 2°42.101 141.9 11.8 154 24.1
2009-05-27 11:15:58 51°24.877 2°42.267 144.9 11.8 150 23.5
2009-05-27 11:16:58 51°24.701 2°42.413 149.4 11.7 151 25.5
2009-05-27 11:17:58 51°24.523 2°42.556 148.1 12 156 20.8
2009-05-27 11:18:59 51°24.351 2°42.713 145.7 11.7 150 23.8
2009-05-27 11:19:58 51°24.181 2°42.857 145.7 12 147 23.5
2009-05-27 11:20:58 51°24.01 2°43.005 147.1 11.6 146 25.7
2009-05-27 11:21:58 51°23.842 2°43.151 147.1 11.8 149 24.3
2009-05-27 11:22:59 51°23.67 2°43.303 146.7 11.6 150 22.5
2009-05-27 11:23:58 51°23.504 2°43.445 148.2 11.4 152 24.8
2009-05-27 11:24:58 51°23.334 2°43.582 148.9 11.5 154 25.4
2009-05-27 11:25:58 51°23.165 2°43.721 148.5 11.5 149 26.9
2009-05-27 11:26:58 51°22.995 2°43.863 146.2 11.4 147 27.4
2009-05-27 11:27:59 51°22.823 2°44.007 145.8 11.5 150 25.2
2009-05-27 11:28:58 51°22.656 2°44.148 148.1 11.6 152 25.5
2009-05-27 11:29:58 51°22.485 2°44.297 146.7 11.9 151 26.6
2009-05-27 11:30:58 51°22.314 2°44.453 146.7 11.9 152 25.6
2009-05-27 11:31:58 51°22.144 2°44.607 146 11.7 154 24.3
2009-05-27 11:32:58 51°21.973 2°44.761 148.9 11.8 150 23.6
2009-05-27 11:33:58 51°21.802 2°44.925 145.1 12 147 22.8
2009-05-27 11:34:59 51°21.628 2°45.086 148.1 11.7 153 23.4
2009-05-27 11:35:58 51°21.459 2°45.243 147.8 11.8 151 25.2
2009-05-27 11:36:58 51°21.288 2°45.401 148.3 11.9 150 26.3
2009-05-27 11:37:58 51°21.117 2°45.56 148.1 12 147 26.8
2009-05-27 11:38:58 51°20.949 2°45.719 146.4 11.5 148 24.9
2009-05-27 11:39:59 51°20.781 2°45.878 148.4 11.5 150 25.7
2009-05-27 11:40:58 51°20.617 2°46.031 147.3 11.5 152 22.9
2009-05-27 11:41:58 51°20.453 2°46.187 146 11.3 154 20.9
2009-05-27 11:42:58 51°20.289 2°46.344 149.9 11.2 151 18.7
2009-05-27 11:43:59 51°20.12 2°46.5 146.1 11.7 150 14.3
2009-05-27 11:44:58 51°19.954 2°46.653 145.7 11.7 147 18.8
2009-05-27 11:45:58 51°19.786 2°46.805 147 11.6 150 20.5
2009-05-27 11:46:58 51°19.616 2°46.96 145.9 11.7 154 22.1
2009-05-27 11:47:58 51°19.447 2°47.112 149 11.5 148 21.8
2009-05-27 11:48:58 51°19.278 2°47.265 147.2 11.9 146 21.7
2009-05-27 11:49:58 51°19.11 2°47.419 145.1 11.9 145 21
2009-05-27 11:50:58 51°18.94 2°47.575 146.4 11.8 150 19.1
2009-05-27 11:51:58 51°18.772 2°47.736 146.7 11.8 148 17
2009-05-27 11:52:59 51°18.601 2°47.902 147.6 11.8 146 15.4
2009-05-27 11:53:58 51°18.436 2°48.063 146.7 11.8 153 13.8
2009-05-27 11:54:58 51°18.27 2°48.229 147.5 11.9 145 11.5
2009-05-27 11:55:58 51°18.102 2°48.393 148.9 11.9 144 10.5
2009-05-27 11:56:58 51°17.936 2°48.559 148.1 11.8 149 10.7
2009-05-27 11:57:59 51°17.766 2°48.724 150.3 11.9 144 11.2
2009-05-27 11:58:58 51°17.599 2°48.886 149.5 11.8 143 12.8
2009-05-27 11:59:58 51°17.429 2°49.05 146.4 12 154 12.7
2009-05-27 12:00:58 51°17.258 2°49.212 146.3 12 146 12.6
2009-05-27 12:01:59 51°17.086 2°49.382 146.6 12.1 153 10.3
2009-05-27 12:02:58 51°16.919 2°49.549 148.9 11.9 146 10.2
2009-05-27 12:03:58 51°16.749 2°49.722 146.5 12.1 146 13.6
2009-05-27 12:04:58 51°16.581 2°49.898 145.1 11.9 150 13.7
2009-05-27 12:05:58 51°16.414 2°50.075 145.7 11.9 152 12.1
2009-05-27 12:06:59 51°16.243 2°50.25 148.5 12 148 11.4
2009-05-27 12:07:58 51°16.084 2°50.419 147.6 11.5 144 11
2009-05-27 12:08:58 51°15.932 2°50.621 136.7 12.1 134 13.6
2009-05-27 12:09:58 51°15.816 2°50.882 121.7 11.9 122 14
2009-05-27 12:10:58 51°15.733 2°51.173 106 12.2 103 13.8
2009-05-27 12:11:58 51°15.684 2°51.488 104.9 12 104 13.7
2009-05-27 12:12:58 51°15.638 2°51.799 105.6 12.2 104 13.5
2009-05-27 12:13:59 51°15.567 2°52.104 113.3 12 115 13
2009-05-27 12:14:58 51°15.482 2°52.385 116.3 11.9 119 12.6
2009-05-27 12:15:59 51°15.39 2°52.668 120.3 11.9 124 12.7
2009-05-27 12:16:58 51°15.287 2°52.927 125.2 11.8 120 11.8
2009-05-27 12:17:58 51°15.182 2°53.192 123.8 11.8 121 11.6
2009-05-27 12:18:58 51°15.085 2°53.466 124.8 11.7 116 11.2
2009-05-27 12:19:59 51°14.997 2°53.748 123.3 11.5 129 11.1
2009-05-27 12:20:58 51°14.892 2°54.001 122.5 11.9 120 10.8
2009-05-27 12:21:58 51°14.777 2°54.252 128.4 11.6 128 11.3
2009-05-27 12:22:59 51°14.653 2°54.5 131.5 11.8 129 11.6
2009-05-27 12:23:58 51°14.536 2°54.739 132.2 11.7 128 11.7
2009-05-27 12:24:59 51°14.411 2°54.986 132.2 11.8 128 11.7
2009-05-27 12:25:58 51°14.285 2°55.214 131.5 10.6 134 11.7
2009-05-27 12:26:58 51°14.171 2°55.389 144 8.8 146 11.8
2009-05-27 12:27:58 51°14.053 2°55.482 157.4 7.4 155 11.9
2009-05-27 12:28:59 51°13.944 2°55.555 158.1 6.7 159 12.2
2009-05-27 12:29:58 51°13.843 2°55.62 159.6 6.7 159 11.6
2009-05-27 12:30:58 51°13.75 2°55.705 136.6 6.2 134 12.4
2009-05-27 12:31:59 51°13.697 2°55.829 123.5 4.7 123 10.3
2009-05-27 12:32:58 51°13.666 2°55.926 108.3 3.5 107 9.2
2009-05-27 12:33:59 51°13.661 2°55.956 106.1 0.3 79 7.4
2009-05-27 12:34:59 51°13.662 2°55.96 116.9 0.1 5 -999
2009-05-27 12:35:58 51°13.663 2°55.959 130.5 0.1 46 4.6
2009-05-27 12:36:58 51°13.662 2°55.96 127.1 -999 305 7.2
2009-05-27 12:37:58 51°13.662 2°55.96 127.3 -999 321 7.2
2009-05-27 12:38:59 51°13.662 2°55.959 127.6 -999 45 7.4
2009-05-27 12:39:59 51°13.662 2°55.959 127.2 -999 175 7.3
2009-05-27 12:41:02 51°13.662 2°55.96 127.1 -999 94 -999
2009-05-27 12:42:03 51°13.662 2°55.959 127.1 0.1 185 -999
2009-05-27 12:43:03 51°13.663 2°55.959 127.1 -999 88 -999
2009-05-27 12:44:03 51°13.663 2°55.959 127.6 0.1 172 -999
2009-05-27 12:45:03 51°13.663 2°55.959 127.6 -999 261 -999
2009-05-27 12:46:03 51°13.663 2°55.959 127.6 -999 221 -999
2009-05-27 12:47:03 51°13.664 2°55.959 127.4 -999 11 -999
2009-05-27 12:48:03 51°13.664 2°55.96 127.5 -999 32 -999
2009-05-27 12:49:03 51°13.663 2°55.961 127.5 -999 20 -999
2009-05-27 12:50:03 51°13.663 2°55.961 127.6 -999 214 -999
2009-05-27 12:51:03 51°13.663 2°55.96 127.5 0.1 282 -999
2009-05-27 12:52:03 51°13.664 2°55.961 127.8 -999 35 -999
2009-05-27 12:53:03 51°13.664 2°55.96 127.9 -999 161 -999
2009-05-27 12:54:03 51°13.663 2°55.96 127.8 -999 72 -999
2009-05-27 12:55:03 51°13.662 2°55.96 127.8 -999 20 -999
2009-05-27 12:56:03 51°13.662 2°55.961 127.5 -999 85 -999
2009-05-27 12:57:03 51°13.662 2°55.961 127.5 -999 117 -999
2009-05-27 12:58:03 51°13.663 2°55.961 127.5 -999 326 -999
2009-05-27 12:59:03 51°13.663 2°55.96 128 -999 69 -999
2009-05-27 13:00:03 51°13.663 2°55.96 128 -999 83 -999
2009-05-27 13:01:03 51°13.663 2°55.96 128.1 -999 274 -999
2009-05-27 13:02:03 51°13.663 2°55.959 128 -999 79 -999
2009-05-27 13:03:03 51°13.663 2°55.959 127.8 0.1 15 -999
2009-05-27 13:04:03 51°13.663 2°55.959 127.6 -999 263 -999
2009-05-27 13:05:03 51°13.663 2°55.959 127.7 -999 148 -999
2009-05-27 13:06:03 51°13.663 2°55.959 127.7 0.1 10 -999
2009-05-27 13:07:03 51°13.663 2°55.958 127.8 -999 92 -999
2009-05-27 13:08:03 51°13.663 2°55.958 127.8 -999 209 -999
2009-05-27 13:09:03 51°13.663 2°55.958 127.8 -999 191 -999
2009-05-27 13:10:03 51°13.664 2°55.959 127.5 -999 141 -999
2009-05-27 13:11:03 51°13.664 2°55.958 127.4 -999 224 -999
2009-05-27 13:12:03 51°13.664 2°55.959 127.5 -999 13 -999
2009-05-27 13:13:03 51°13.664 2°55.959 128.1 -999 86 -999
2009-05-27 13:14:03 51°13.664 2°55.959 128 -999 257 -999
2009-05-27 13:15:03 51°13.664 2°55.959 128.1 -999 100 -999
2009-05-27 13:16:03 51°13.663 2°55.959 128.1 -999 168 -999
2009-05-27 13:17:03 51°13.663 2°55.96 128 -999 66 -999
2009-05-27 13:18:03 51°13.662 2°55.96 128.1 -999 164 -999
2009-05-27 13:19:03 51°13.664 2°55.96 128.1 -999 59 -999
2009-05-27 13:20:03 51°13.664 2°55.961 128.1 -999 186 -999
2009-05-27 13:21:03 51°13.662 2°55.961 128.1 -999 23 -999
2009-05-27 13:22:03 51°13.662 2°55.961 128.3 -999 95 -999
2009-05-27 13:23:03 51°13.662 2°55.961 128.3 -999 254 -999
2009-05-27 13:24:03 51°13.661 2°55.961 128.3 -999 245 -999
2009-05-27 13:25:03 51°13.66 2°55.961 128.2 -999 248 -999
2009-05-27 13:26:03 51°13.661 2°55.96 128.3 -999 88 -999
2009-05-27 13:27:03 51°13.661 2°55.96 128.3 -999 74 -999
2009-05-27 13:28:03 51°13.661 2°55.96 128.2 -999 234 -999
2009-05-27 13:29:03 51°13.662 2°55.96 128.3 -999 88 -999
2009-05-27 13:30:03 51°13.662 2°55.96 128.3 -999 1 -999
2009-05-27 13:31:03 51°13.663 2°55.96 128.3 -999 150 -999
2009-05-27 13:32:03 51°13.662 2°55.96 128.3 -999 219 -999
2009-05-27 13:33:03 51°13.662 2°55.959 128.3 -999 68 -999
2009-05-27 13:34:03 51°13.663 2°55.96 128.3 -999 217 -999
2009-05-27 13:35:03 51°13.662 2°55.96 128.2 -999 110 -999
2009-05-27 13:36:03 51°13.663 2°55.961 128.3 -999 208 -999
2009-05-27 13:37:03 51°13.663 2°55.96 128.2 -999 117 -999
2009-05-27 13:38:03 51°13.662 2°55.96 128.2 -999 51 -999
2009-05-27 13:39:03 51°13.662 2°55.96 128.3 -999 238 -999
2009-05-27 13:40:03 51°13.661 2°55.959 128.3 -999 108 -999
2009-05-27 13:41:03 51°13.662 2°55.959 128.4 -999 51 -999
2009-05-27 13:42:03 51°13.663 2°55.959 128.3 -999 225 -999
2009-05-27 13:43:03 51°13.664 2°55.959 128.2 -999 231 -999
2009-05-27 13:44:03 51°13.664 2°55.96 128 -999 46 -999
2009-05-27 13:45:03 51°13.664 2°55.961 127.8 -999 4 -999
2009-05-27 13:46:03 51°13.663 2°55.961 127.8 -999 22 -999
2009-05-27 13:47:03 51°13.664 2°55.96 127.8 -999 244 -999
2009-05-27 13:48:03 51°13.664 2°55.959 127.8 -999 148 -999
2009-05-27 13:49:03 51°13.664 2°55.959 128.1 -999 356 -999
2009-05-27 13:50:03 51°13.662 2°55.959 128 -999 206 -999
2009-05-27 13:51:03 51°13.662 2°55.959 128.1 -999 309 -999
2009-05-27 13:52:03 51°13.662 2°55.959 127.9 -999 106 -999
2009-05-27 13:53:03 51°13.663 2°55.96 127.9 -999 20 -999
2009-05-27 13:54:03 51°13.663 2°55.96 127.9 0.1 12 -999
2009-05-27 13:55:03 51°13.663 2°55.959 128 -999 74 -999
2009-05-27 13:56:03 51°13.663 2°55.96 127.6 -999 304 -999
2009-05-27 13:57:03 51°13.663 2°55.96 127.7 -999 14 -999
2009-05-27 13:58:03 51°13.662 2°55.96 127.8 -999 196 -999
2009-05-27 13:59:03 51°13.662 2°55.96 127.8 -999 210 -999
2009-05-27 14:00:03 51°13.663 2°55.96 127.6 -999 140 -999
2009-05-27 14:01:03 51°13.663 2°55.96 127.6 -999 315 -999
2009-05-27 14:02:03 51°13.663 2°55.96 127.6 -999 241 -999
2009-05-27 14:03:03 51°13.663 2°55.961 127.7 0.1 48 -999
2009-05-27 14:04:03 51°13.663 2°55.96 127.8 -999 317 -999
2009-05-27 14:05:03 51°13.663 2°55.96 127.8 -999 64 -999
2009-05-27 14:06:03 51°13.664 2°55.961 127.9 -999 29 -999
2009-05-27 14:07:03 51°13.663 2°55.961 127.8 0.1 39 -999
2009-05-27 14:08:03 51°13.663 2°55.961 127.7 -999 188 -999
2009-05-27 14:09:03 51°13.663 2°55.961 127.8 -999 65 -999
2009-05-27 14:10:03 51°13.663 2°55.961 127.8 -999 230 -999
2009-05-27 14:11:03 51°13.664 2°55.961 127.7 -999 344 -999
2009-05-27 14:12:03 51°13.664 2°55.961 127.5 -999 26 -999
2009-05-27 14:13:03 51°13.664 2°55.96 127.4 -999 161 -999
2009-05-27 14:14:03 51°13.664 2°55.96 127.5 -999 50 -999
2009-05-27 14:15:03 51°13.664 2°55.96 127.8 -999 1 -999
2009-05-27 14:16:03 51°13.664 2°55.959 127.7 0.1 16 -999
2009-05-27 14:17:03 51°13.664 2°55.96 127.5 -999 51 -999
2009-05-27 14:18:03 51°13.664 2°55.961 127.5 -999 330 -999
2009-05-27 14:19:03 51°13.664 2°55.961 127.5 -999 359 -999
2009-05-27 14:20:03 51°13.664 2°55.962 127.7 -999 20 -999
2009-05-27 14:21:03 51°13.663 2°55.961 127.6 0.1 25 -999
2009-05-27 14:22:03 51°13.663 2°55.96 127.4 -999 195 -999
2009-05-27 14:23:03 51°13.664 2°55.96 127.8 -999 10 -999
2009-05-27 14:24:03 51°13.664 2°55.96 127.6 0.1 5 -999
2009-05-27 14:25:03 51°13.664 2°55.961 127.5 -999 323 -999
2009-05-27 14:26:03 51°13.664 2°55.961 127.4 0.1 352 -999
2009-05-27 14:27:03 51°13.664 2°55.96 127.4 -999 4 -999
2009-05-27 14:28:03 51°13.663 2°55.96 127.5 -999 306 -999
2009-05-27 14:29:03 51°13.664 2°55.96 127.5 -999 319 -999
2009-05-27 14:30:03 51°13.663 2°55.961 127.8 -999 5 -999
2009-05-27 14:31:03 51°13.666 2°55.96 127.8 0.1 157 -999
2009-05-27 14:32:03 51°13.662 2°55.961 127.8 -999 177 -999
2009-05-27 14:33:03 51°13.662 2°55.96 127.8 -999 27 -999
2009-05-27 14:34:03 51°13.661 2°55.96 127.5 0.1 336 -999
2009-05-27 14:35:03 51°13.662 2°55.96 127.7 -999 321 -999
2009-05-27 14:36:03 51°13.662 2°55.96 127.9 -999 139 -999
2009-05-27 14:37:03 51°13.661 2°55.96 127.9 -999 136 -999
2009-05-27 14:38:03 51°13.661 2°55.96 127.5 -999 239 -999
2009-05-27 14:39:03 51°13.661 2°55.96 127.5 -999 175 -999
2009-05-27 14:40:03 51°13.661 2°55.96 127.6 -999 353 -999
2009-05-27 14:41:03 51°13.661 2°55.96 127.6 -999 128 -999
2009-05-27 14:42:03 51°13.662 2°55.96 127.6 -999 158 -999
2009-05-27 14:43:03 51°13.662 2°55.961 127.6 -999 116 -999
2009-05-27 14:44:03 51°13.663 2°55.96 127.5 0.1 359 -999
2009-05-27 14:45:03 51°13.663 2°55.96 127.5 0.1 6 -999
2009-05-27 14:46:03 51°13.663 2°55.96 127.8 -999 143 -999
2009-05-27 14:47:03 51°13.663 2°55.96 127.6 0.1 3 -999
2009-05-27 14:48:03 51°13.662 2°55.961 127.6 -999 155 -999
2009-05-27 14:49:03 51°13.663 2°55.961 127.8 -999 354 -999
2009-05-27 14:50:03 51°13.663 2°55.96 127.8 -999 133 -999
2009-05-27 14:51:03 51°13.663 2°55.96 127.7 -999 184 -999
2009-05-27 14:52:03 51°13.662 2°55.96 127.6 -999 337 -999
2009-05-27 14:53:03 51°13.662 2°55.96 127.6 -999 8 -999
2009-05-27 14:54:04 51°13.663 2°55.96 127.6 -999 206 -999
2009-05-27 14:55:03 51°13.662 2°55.96 128 -999 96 -999
2009-05-27 14:56:03 51°13.663 2°55.96 127.7 -999 324 -999
2009-05-27 14:57:04 51°13.663 2°55.96 127.6 -999 14 -999
2009-05-27 14:58:03 51°13.663 2°55.96 127.6 -999 164 -999
2009-05-27 14:59:03 51°13.663 2°55.96 128.2 -999 176 -999
2009-05-27 15:00:04 51°13.663 2°55.96 127.8 0.1 184 -999
2009-05-27 15:01:03 51°13.663 2°55.96 127.7 -999 149 -999
2009-05-27 15:02:04 51°13.663 2°55.96 127.7 0.1 6 -999
2009-05-27 15:03:03 51°13.663 2°55.959 127.8 -999 40 -999
2009-05-27 15:04:03 51°13.663 2°55.96 127.7 -999 357 -999
2009-05-27 15:05:04 51°13.663 2°55.96 127.6 -999 18 -999
2009-05-27 15:06:03 51°13.663 2°55.96 127.8 0.1 186 -999
2009-05-27 15:07:04 51°13.662 2°55.96 128.1 -999 4 -999
2009-05-27 15:08:03 51°13.662 2°55.96 127.6 0.1 350 -999
2009-05-27 15:09:03 51°13.661 2°55.96 127.7 -999 1 -999
2009-05-27 15:10:04 51°13.661 2°55.96 128.1 -999 213 -999
2009-05-27 15:11:03 51°13.662 2°55.96 127.8 -999 327 -999
2009-05-27 15:12:03 51°13.662 2°55.96 127.9 -999 318 -999
2009-05-27 15:13:04 51°13.662 2°55.96 127.8 0.1 339 -999
2009-05-27 15:14:03 51°13.662 2°55.96 127.7 -999 335 -999
2009-05-27 15:15:04 51°13.662 2°55.96 127.6 0.1 337 -999
2009-05-27 15:16:04 51°13.662 2°55.96 127.6 0.1 165 -999
2009-05-27 15:17:03 51°13.662 2°55.96 127.6 -999 235 -999
2009-05-27 15:18:04 51°13.663 2°55.96 127.8 0.1 11 -999
2009-05-27 15:19:03 51°13.662 2°55.96 127.7 -999 192 -999
2009-05-27 15:20:03 51°13.662 2°55.96 127.8 -999 120 -999
2009-05-27 15:21:04 51°13.662 2°55.96 127.8 -999 189 -999
2009-05-27 15:22:03 51°13.663 2°55.96 128.1 -999 334 -999
2009-05-27 15:23:04 51°13.663 2°55.959 127.8 -999 8 -999
2009-05-27 15:24:03 51°13.664 2°55.959 127.6 -999 88 -999
2009-05-27 15:25:03 51°13.664 2°55.959 127.6 0.1 232 -999
2009-05-27 15:26:04 51°13.664 2°55.96 127.7 -999 190 -999
2009-05-27 15:27:03 51°13.664 2°55.96 128.2 -999 208 -999
2009-05-27 15:28:04 51°13.664 2°55.959 127.9 -999 252 -999
2009-05-27 15:29:04 51°13.664 2°55.959 127.9 -999 329 -999
2009-05-27 15:30:03 51°13.664 2°55.959 128 -999 88 -999
2009-05-27 15:31:04 51°13.663 2°55.959 127.4 0.1 163 -999
2009-05-27 15:32:03 51°13.663 2°55.96 127.5 -999 340 -999
2009-05-27 15:33:03 51°13.662 2°55.96 127.6 -999 268 -999
2009-05-27 15:34:04 51°13.661 2°55.96 127.7 -999 207 -999
2009-05-27 15:35:03 51°13.661 2°55.96 127.7 -999 31 -999
2009-05-27 15:36:03 51°13.662 2°55.96 127.6 -999 112 -999
2009-05-27 15:37:04 51°13.662 2°55.961 128 -999 226 -999
2009-05-27 15:38:03 51°13.663 2°55.96 128.3 -999 85 -999
2009-05-27 15:39:04 51°13.663 2°55.96 127.7 -999 132 -999
2009-05-27 15:40:04 51°13.664 2°55.959 127.7 -999 151 -999
2009-05-27 15:41:03 51°13.664 2°55.959 127.6 -999 83 -999
2009-05-27 15:42:04 51°13.664 2°55.959 127.6 -999 203 -999
2009-05-27 15:43:03 51°13.665 2°55.96 127.7 -999 197 -999
2009-05-27 15:44:04 51°13.664 2°55.959 127.4 -999 189 -999
2009-05-27 15:45:04 51°13.663 2°55.959 127.8 -999 275 -999
2009-05-27 15:46:03 51°13.663 2°55.959 127.5 0.1 39 -999
2009-05-27 15:47:04 51°13.662 2°55.959 127.3 -999 313 -999
2009-05-27 15:48:04 51°13.663 2°55.959 127.3 -999 224 -999
2009-05-27 15:49:03 51°13.663 2°55.959 127.5 -999 235 -999
2009-05-27 15:50:04 51°13.664 2°55.959 127.7 -999 244 -999
2009-05-27 15:51:03 51°13.664 2°55.959 127.9 -999 9 -999
2009-05-27 15:52:03 51°13.662 2°55.959 127.8 -999 215 -999
2009-05-27 15:53:04 51°13.662 2°55.959 127.8 -999 317 -999
2009-05-27 15:54:03 51°13.662 2°55.959 128.1 0.1 226 -999
2009-05-27 15:55:04 51°13.662 2°55.959 128 0.1 36 -999
2009-05-27 15:56:04 51°13.662 2°55.959 128.1 -999 169 -999
2009-05-27 15:57:03 51°13.662 2°55.959 128 -999 193 -999
2009-05-27 15:58:04 51°13.662 2°55.959 127.9 -999 212 -999
2009-05-27 15:59:04 51°13.663 2°55.959 127.4 -999 90 -999
2009-05-27 16:00:03 51°13.663 2°55.959 127.3 -999 119 -999
2009-05-27 16:01:04 51°13.663 2°55.959 127.4 -999 192 -999
2009-05-27 16:02:04 51°13.663 2°55.959 127.8 -999 64 -999
2009-05-27 16:03:03 51°13.663 2°55.959 127.4 -999 353 -999
2009-05-27 16:04:04 51°13.662 2°55.959 127.7 -999 229 -999
2009-05-27 16:05:03 51°13.662 2°55.959 128.4 -999 329 -999
2009-05-27 16:06:04 51°13.662 2°55.958 127.5 -999 155 -999
2009-05-27 16:07:04 51°13.663 2°55.959 127.5 -999 84 -999
2009-05-27 16:08:03 51°13.663 2°55.959 127.9 -999 23 -999
2009-05-27 16:09:04 51°13.662 2°55.958 127.6 -999 223 -999
2009-05-27 16:10:04 51°13.663 2°55.96 128.1 -999 185 -999
2009-05-27 16:11:03 51°13.662 2°55.959 128.5 -999 213 -999
2009-05-27 16:12:04 51°13.662 2°55.959 128.5 -999 9 -999
2009-05-27 16:13:04 51°13.662 2°55.959 127.8 -999 271 -999
2009-05-27 16:14:03 51°13.662 2°55.959 128.4 -999 242 -999
2009-05-27 16:15:04 51°13.663 2°55.959 128.3 -999 303 -999
2009-05-27 16:16:03 51°13.664 2°55.959 128.1 -999 211 -999
2009-05-27 16:17:04 51°13.664 2°55.959 127.8 -999 236 -999
2009-05-27 16:18:04 51°13.665 2°55.959 127.9 -999 36 -999
2009-05-27 16:19:04 51°13.665 2°55.958 127.7 -999 207 -999
2009-05-27 16:20:04 51°13.664 2°55.958 127.8 0.1 228 -999
2009-05-27 16:21:04 51°13.664 2°55.959 128 -999 62 -999
2009-05-27 16:22:04 51°13.664 2°55.959 128.3 -999 239 -999
2009-05-27 16:23:04 51°13.664 2°55.959 128.1 0.1 194 -999
2009-05-27 16:24:04 51°13.664 2°55.959 128.2 0.1 196 -999
2009-05-27 16:25:04 51°13.664 2°55.959 127.6 -999 150 -999
2009-05-27 16:26:04 51°13.664 2°55.959 127.7 -999 354 -999
2009-05-27 16:27:03 51°13.664 2°55.959 127.7 0.1 195 -999
2009-05-27 16:28:04 51°13.664 2°55.959 127.8 0.1 224 -999
2009-05-27 16:29:04 51°13.664 2°55.959 127.5 -999 282 -999
2009-05-27 16:30:04 51°13.663 2°55.959 127.5 -999 309 -999
2009-05-27 16:31:04 51°13.663 2°55.959 127.9 -999 26 -999
2009-05-27 16:32:04 51°13.663 2°55.96 127.9 -999 166 -999
2009-05-27 16:33:04 51°13.663 2°55.96 127.3 0.1 219 -999
2009-05-27 16:34:04 51°13.663 2°55.96 127.4 -999 197 -999
2009-05-27 16:35:04 51°13.663 2°55.96 127.8 -999 2 -999
2009-05-27 16:36:04 51°13.664 2°55.96 127.5 0.1 226 -999
2009-05-27 16:37:04 51°13.664 2°55.96 127.8 -999 255 -999
2009-05-27 16:38:04 51°13.663 2°55.96 128.3 -999 260 -999
2009-05-27 16:39:04 51°13.663 2°55.961 127.4 -999 196 -999
2009-05-27 16:40:04 51°13.663 2°55.961 127.8 -999 35 -999
2009-05-27 16:41:04 51°13.663 2°55.961 127.3 -999 65 -999
2009-05-27 16:42:04 51°13.663 2°55.961 127.7 -999 10 -999
2009-05-27 16:43:04 51°13.663 2°55.961 127.5 -999 338 -999
2009-05-27 16:44:04 51°13.663 2°55.96 127.3 -999 136 -999
2009-05-27 16:45:04 51°13.663 2°55.96 127.8 -999 25 -999
2009-05-27 16:46:04 51°13.662 2°55.96 127.3 -999 234 -999
2009-05-27 16:47:04 51°13.662 2°55.96 127.4 -999 249 -999
2009-05-27 16:48:04 51°13.662 2°55.961 127.6 0.1 222 -999
2009-05-27 16:49:04 51°13.662 2°55.961 127.8 -999 336 -999
2009-05-27 16:50:04 51°13.662 2°55.961 127.8 -999 7 -999
2009-05-27 16:51:04 51°13.662 2°55.961 128 -999 269 -999
2009-05-27 16:52:04 51°13.663 2°55.961 127.9 0.2 38 -999
2009-05-27 16:53:04 51°13.663 2°55.96 128.4 0.1 38 -999
2009-05-27 16:54:04 51°13.662 2°55.96 128.5 0.1 24 -999
2009-05-27 16:55:04 51°13.662 2°55.96 128 0.1 23 -999
2009-05-27 16:56:04 51°13.662 2°55.96 127.5 -999 347 -999
2009-05-27 16:57:04 51°13.663 2°55.96 127.5 0.1 206 -999
2009-05-27 16:58:04 51°13.663 2°55.96 127.5 -999 231 -999
2009-05-27 16:59:04 51°13.662 2°55.961 127.5 -999 221 -999
2009-05-27 17:00:04 51°13.663 2°55.961 127.6 -999 314 -999
2009-05-27 17:01:04 51°13.663 2°55.96 127.7 0.1 215 -999
2009-05-27 17:02:03 51°13.664 2°55.96 127.5 -999 11 -999
2009-05-27 17:03:04 51°13.663 2°55.959 127.6 -999 45 -999
2009-05-27 17:04:04 51°13.663 2°55.959 127.4 -999 197 -999
2009-05-27 17:05:03 51°13.663 2°55.959 128.6 0.1 218 -999
2009-05-27 17:06:04 51°13.663 2°55.958 128.6 -999 228 -999
2009-05-27 17:07:04 51°13.664 2°55.958 128.6 -999 14 -999
2009-05-27 17:08:04 51°13.664 2°55.959 128.6 0.1 28 -999
2009-05-27 17:09:04 51°13.664 2°55.959 128.6 -999 246 -999
2009-05-27 17:10:04 51°13.663 2°55.959 128.5 -999 32 -999
2009-05-27 17:11:04 51°13.662 2°55.959 128.6 -999 11 -999